createdAt,value
2018-01-06T00:01:52.212Z,1.63
2018-01-06T00:04:19.718Z,1.80
2018-01-06T00:06:47.284Z,2.23
2018-01-06T00:09:14.827Z,1.60
2018-01-06T00:11:42.332Z,1.80
2018-01-06T00:14:09.892Z,1.63
2018-01-06T00:16:37.424Z,1.70
2018-01-06T00:19:04.967Z,1.90
2018-01-06T00:21:32.475Z,1.63
2018-01-06T00:24:00.790Z,2.00
2018-01-06T00:26:28.301Z,2.80
2018-01-06T00:28:55.898Z,2.17
2018-01-06T00:31:23.408Z,2.07
2018-01-06T00:33:51.680Z,2.20
2018-01-06T00:36:19.232Z,1.70
2018-01-06T00:38:47.511Z,2.60
2018-01-06T00:41:15.080Z,2.40
2018-01-06T00:43:42.591Z,2.57
2018-01-06T00:46:10.146Z,2.10
2018-01-06T00:48:38.419Z,2.40
2018-01-06T00:51:05.960Z,3.30
2018-01-06T00:53:33.480Z,3.03
2018-01-06T00:56:01.797Z,2.73
2018-01-06T00:58:29.313Z,3.30
2018-01-06T01:00:56.868Z,2.80
2018-01-06T01:03:24.373Z,2.90
2018-01-06T01:05:51.888Z,3.93
2018-01-06T01:08:19.433Z,3.00
2018-01-06T01:10:46.942Z,3.13
2018-01-06T01:13:14.499Z,3.83
2018-01-06T01:15:42.017Z,3.10
2018-01-06T01:18:09.564Z,2.90
2018-01-06T01:20:37.077Z,2.93
2018-01-06T01:23:05.392Z,2.80
2018-01-06T01:25:32.904Z,2.77
2018-01-06T01:28:00.452Z,3.10
2018-01-06T01:30:27.967Z,2.87
2018-01-06T01:32:55.510Z,3.27
2018-01-06T01:35:23.016Z,3.83
2018-01-06T01:37:50.564Z,3.33
2018-01-06T01:40:18.080Z,2.80
2018-01-06T01:42:45.647Z,2.50
2018-01-06T01:45:13.931Z,2.90
2018-01-06T01:47:42.207Z,2.60
2018-01-06T01:50:09.762Z,2.80
2018-01-06T01:52:37.273Z,2.40
2018-01-06T01:55:05.583Z,2.97
2018-01-06T01:57:33.099Z,3.57
2018-01-06T02:00:00.650Z,2.50
2018-01-06T02:02:28.150Z,2.80
2018-01-06T02:04:55.683Z,2.63
2018-01-06T02:07:23.199Z,2.50
2018-01-06T02:09:50.751Z,3.10
2018-01-06T02:12:18.252Z,2.47
2018-01-06T02:14:46.525Z,2.60
2018-01-06T02:17:14.081Z,2.57
2018-01-06T02:19:41.588Z,2.47
2018-01-06T02:22:09.139Z,2.77
2018-01-06T02:24:36.645Z,3.57
2018-01-06T02:27:04.952Z,2.70
2018-01-06T02:29:32.464Z,3.53
2018-01-06T02:32:00.030Z,2.90
2018-01-06T02:34:27.553Z,2.93
2018-01-06T02:36:55.111Z,3.00
2018-01-06T02:39:22.636Z,3.23
2018-01-06T02:41:50.199Z,3.73
2018-01-06T02:44:17.711Z,3.53
2018-01-06T02:46:45.224Z,3.37
2018-01-06T02:49:12.774Z,3.97
2018-01-06T02:51:41.047Z,4.00
2018-01-06T02:54:08.599Z,4.43
2018-01-06T02:56:36.103Z,5.57
2018-01-06T02:59:04.419Z,4.63
2018-01-06T03:01:31.934Z,5.03
2018-01-06T03:03:59.504Z,4.73
2018-01-06T03:06:27.019Z,4.00
2018-01-06T03:08:55.335Z,4.20
2018-01-06T03:11:22.846Z,4.50
2018-01-06T03:13:50.390Z,4.50
2018-01-06T03:16:17.898Z,5.00
2018-01-06T03:18:45.453Z,4.33
2018-01-06T03:21:12.967Z,4.70
2018-01-06T03:23:41.299Z,4.87
2018-01-06T03:26:08.812Z,6.10
2018-01-06T03:28:36.324Z,5.00
2018-01-06T03:31:03.885Z,5.40
2018-01-06T03:33:31.405Z,5.80
2018-01-06T03:35:58.956Z,5.60
2018-01-06T03:38:26.468Z,5.60
2018-01-06T03:40:54.011Z,7.07
2018-01-06T03:43:21.520Z,7.20
2018-01-06T03:45:49.944Z,6.43
2018-01-06T03:48:17.451Z,7.27
2018-01-06T03:50:45.020Z,7.27
2018-01-06T03:53:12.538Z,7.90
2018-01-06T03:55:40.816Z,8.03
2018-01-06T03:58:08.359Z,9.60
2018-01-06T04:00:35.875Z,8.77
2018-01-06T04:03:04.187Z,9.30
2018-01-06T04:05:31.695Z,8.13
2018-01-06T04:07:59.243Z,8.20
2018-01-06T04:10:26.757Z,9.70
2018-01-06T04:12:55.092Z,9.10
2018-01-06T04:15:22.601Z,8.90
2018-01-06T04:17:50.149Z,9.10
2018-01-06T04:20:17.656Z,8.60
2018-01-06T04:22:45.224Z,10.40
2018-01-06T04:25:12.741Z,10.50
2018-01-06T04:27:40.279Z,10.37
2018-01-06T04:30:07.828Z,10.47
2018-01-06T04:32:35.346Z,11.60
2018-01-06T04:35:03.667Z,13.63
2018-01-06T04:37:31.200Z,13.57
2018-01-06T04:39:59.520Z,14.77
2018-01-06T04:42:27.111Z,14.57
2018-01-06T04:44:54.671Z,13.73
2018-01-06T04:47:22.195Z,14.73
2018-01-06T04:49:49.759Z,13.93
2018-01-06T04:52:17.284Z,13.47
2018-01-06T04:54:44.808Z,13.60
2018-01-06T04:57:12.366Z,13.30
2018-01-06T04:59:39.884Z,14.90
2018-01-06T05:02:07.446Z,14.40
2018-01-06T05:04:35.728Z,13.50
2018-01-06T05:07:04.048Z,13.30
2018-01-06T05:09:31.563Z,14.50
2018-01-06T05:11:59.132Z,13.93
2018-01-06T05:14:26.643Z,13.73
2018-01-06T05:16:54.926Z,12.97
2018-01-06T05:19:23.243Z,14.27
2018-01-06T05:21:50.751Z,13.43
2018-01-06T05:24:18.303Z,11.50
2018-01-06T05:26:45.811Z,9.90
2018-01-06T05:29:13.367Z,8.27
2018-01-06T05:31:40.878Z,7.70
2018-01-06T05:34:08.457Z,7.13
2018-01-06T05:36:36.736Z,7.27
2018-01-06T05:39:05.052Z,6.40
2018-01-06T05:41:32.560Z,6.13
2018-01-06T05:44:00.119Z,5.93
2018-01-06T05:46:27.639Z,4.53
2018-01-06T05:48:55.928Z,4.00
2018-01-06T05:51:24.257Z,3.80
2018-01-06T05:53:51.771Z,3.03
2018-01-06T05:56:19.323Z,3.90
2018-01-06T05:58:46.835Z,3.50
2018-01-06T06:01:15.140Z,3.40
2018-01-06T06:03:42.662Z,3.50
2018-01-06T06:06:10.216Z,3.67
2018-01-06T06:08:37.723Z,3.40
2018-01-06T06:11:05.284Z,4.07
2018-01-06T06:13:32.788Z,4.10
2018-01-06T06:16:01.064Z,3.73
2018-01-06T06:18:28.612Z,4.33
2018-01-06T06:20:56.116Z,4.43
2018-01-06T06:23:23.655Z,3.90
2018-01-06T06:25:51.164Z,4.17
2018-01-06T06:28:19.472Z,3.43
2018-01-06T06:30:46.987Z,3.70
2018-01-06T06:33:14.537Z,3.63
2018-01-06T06:35:42.080Z,3.73
2018-01-06T06:38:10.352Z,3.60
2018-01-06T06:40:38.668Z,4.47
2018-01-06T06:43:06.185Z,3.53
2018-01-06T06:45:33.704Z,4.77
2018-01-06T06:48:01.244Z,4.20
2018-01-06T06:50:29.543Z,3.80
2018-01-06T06:52:57.097Z,4.27
2018-01-06T06:55:24.600Z,3.63
2018-01-06T06:57:52.907Z,4.53
2018-01-06T07:00:20.417Z,4.10
2018-01-06T07:02:47.921Z,4.57
2018-01-06T07:05:16.239Z,3.20
2018-01-06T07:07:43.755Z,4.00
2018-01-06T07:10:11.315Z,3.33
2018-01-06T07:12:38.823Z,4.53
2018-01-06T07:15:07.134Z,4.20
2018-01-06T07:17:34.647Z,3.90
2018-01-06T07:20:02.209Z,4.70
2018-01-06T07:22:29.728Z,4.40
2018-01-06T07:24:58.029Z,3.43
2018-01-06T07:27:26.373Z,4.17
2018-01-06T07:29:53.883Z,4.33
2018-01-06T07:32:22.194Z,3.90
2018-01-06T07:34:49.716Z,4.10
2018-01-06T07:37:17.264Z,5.70
2018-01-06T07:39:44.775Z,6.40
2018-01-06T07:42:12.337Z,5.00
2018-01-06T07:44:39.851Z,4.70
2018-01-06T07:47:08.172Z,4.83
2018-01-06T07:49:35.679Z,4.13
2018-01-06T07:52:03.191Z,4.23
2018-01-06T07:54:30.743Z,3.80
2018-01-06T07:56:59.012Z,4.23
2018-01-06T07:59:26.568Z,4.30
2018-01-06T08:01:54.072Z,4.33
2018-01-06T08:04:22.388Z,4.30
2018-01-06T08:06:49.903Z,4.60
2018-01-06T08:09:17.444Z,4.00
2018-01-06T08:11:44.951Z,4.30
2018-01-06T08:14:12.508Z,4.17
2018-01-06T08:16:40.015Z,4.10
2018-01-06T08:19:08.292Z,3.50
2018-01-06T08:21:35.843Z,4.40
2018-01-06T08:24:03.351Z,4.00
2018-01-06T08:26:31.656Z,4.90
2018-01-06T08:28:59.931Z,4.67
2018-01-06T08:31:28.248Z,5.37
2018-01-06T08:33:55.920Z,5.53
2018-01-06T08:36:23.464Z,4.10
2018-01-06T08:38:50.981Z,4.90
2018-01-06T08:41:18.525Z,4.37
2018-01-06T08:43:46.802Z,4.43
2018-01-06T08:46:14.364Z,4.40
2018-01-06T08:48:41.872Z,4.37
2018-01-06T08:51:09.380Z,3.70
2018-01-06T08:53:36.932Z,4.20
2018-01-06T08:56:04.448Z,4.40
2018-01-06T08:58:31.995Z,4.30
2018-01-06T09:00:59.508Z,4.27
2018-01-06T09:03:27.821Z,4.07
2018-01-06T09:05:55.336Z,4.27
2018-01-06T09:08:22.888Z,4.20
2018-01-06T09:10:50.391Z,3.80
2018-01-06T09:13:17.957Z,4.40
2018-01-06T09:15:45.471Z,4.70
2018-01-06T09:18:13.031Z,5.47
2018-01-06T09:20:40.534Z,4.87
2018-01-06T09:23:08.053Z,4.43
2018-01-06T09:25:35.611Z,4.80
2018-01-06T09:28:03.137Z,5.27
2018-01-06T09:30:30.687Z,4.97
2018-01-06T09:32:58.201Z,3.97
2018-01-06T09:35:25.760Z,4.87
2018-01-06T09:37:53.263Z,4.37
2018-01-06T09:40:20.832Z,4.73
2018-01-06T09:42:48.347Z,5.00
2018-01-06T09:45:16.641Z,4.70
2018-01-06T09:47:44.948Z,4.93
2018-01-06T09:50:12.451Z,5.00
2018-01-06T09:52:40.004Z,5.50
2018-01-06T09:55:07.515Z,5.53
2018-01-06T09:57:35.060Z,5.53
2018-01-06T10:00:02.583Z,6.30
2018-01-06T10:02:30.904Z,5.80
2018-01-06T10:04:58.412Z,5.23
2018-01-06T10:07:25.933Z,5.80
2018-01-06T10:09:54.244Z,5.40
2018-01-06T10:12:21.759Z,6.20
2018-01-06T10:14:49.308Z,5.57
2018-01-06T10:17:16.817Z,5.60
2018-01-06T10:19:45.148Z,5.10
2018-01-06T10:22:12.667Z,5.87
2018-01-06T10:24:40.186Z,5.57
2018-01-06T10:27:07.732Z,5.63
2018-01-06T10:29:36.015Z,6.10
2018-01-06T10:32:03.580Z,5.67
2018-01-06T10:34:31.091Z,5.70
2018-01-06T10:36:58.636Z,5.83
2018-01-06T10:39:26.915Z,7.53
2018-01-06T10:41:54.475Z,6.77
2018-01-06T10:44:21.996Z,7.40
2018-01-06T10:46:49.550Z,7.10
2018-01-06T10:49:17.837Z,6.57
2018-01-06T10:51:46.148Z,6.83
2018-01-06T10:54:13.661Z,6.10
2018-01-06T10:56:41.233Z,5.20
2018-01-06T10:59:08.752Z,6.80
2018-01-06T11:01:41.875Z,6.40
2018-01-06T11:04:09.421Z,7.13
2018-01-06T11:06:36.940Z,5.40
2018-01-06T11:09:04.500Z,6.10
2018-01-06T11:11:32.019Z,6.03
2018-01-06T11:14:00.344Z,6.20
2018-01-06T11:16:27.859Z,5.67
2018-01-06T11:18:55.438Z,6.47
2018-01-06T11:21:22.953Z,5.50
2018-01-06T11:23:50.508Z,5.63
2018-01-06T11:26:18.792Z,5.10
2018-01-06T11:28:46.366Z,5.17
2018-01-06T11:31:14.648Z,5.80
2018-01-06T11:33:42.159Z,5.47
2018-01-06T11:36:09.705Z,5.03
2018-01-06T11:38:37.980Z,5.30
2018-01-06T11:41:05.540Z,6.20
2018-01-06T11:43:33.059Z,6.33
2018-01-06T11:46:00.625Z,6.03
2018-01-06T11:48:28.151Z,6.37
2018-01-06T11:50:55.714Z,6.80
2018-01-06T11:53:23.234Z,6.07
2018-01-06T11:55:50.781Z,8.77
2018-01-06T11:58:18.296Z,10.17
2018-01-06T12:00:46.266Z,9.77
2018-01-06T12:03:13.783Z,8.30
2018-01-06T12:05:41.441Z,7.53
2018-01-06T12:08:08.991Z,7.00
2018-01-06T12:10:36.502Z,7.03
2018-01-06T12:13:04.060Z,14.00
2018-01-06T12:15:31.579Z,11.30
2018-01-06T12:17:59.899Z,9.33
2018-01-06T12:20:27.411Z,5.80
2018-01-06T12:22:54.960Z,5.30
2018-01-06T12:25:22.464Z,5.40
2018-01-06T12:27:50.016Z,4.73
2018-01-06T12:30:17.524Z,5.37
2018-01-06T12:32:45.091Z,6.20
2018-01-06T12:35:12.607Z,5.33
2018-01-06T12:37:40.140Z,5.67
2018-01-06T12:40:08.460Z,4.80
2018-01-06T12:42:36.012Z,4.67
2018-01-06T12:45:04.342Z,8.90
2018-01-06T12:47:31.847Z,10.53
2018-01-06T12:49:59.412Z,7.73
2018-01-06T12:52:26.943Z,5.97
2018-01-06T12:54:54.486Z,6.33
2018-01-06T12:57:22.771Z,4.93
2018-01-06T12:59:50.339Z,5.03
2018-01-06T13:02:17.862Z,5.07
2018-01-06T13:04:45.421Z,5.50
2018-01-06T13:07:12.935Z,5.20
2018-01-06T13:09:40.524Z,5.13
2018-01-06T13:12:08.048Z,4.70
2018-01-06T13:14:35.561Z,4.40
2018-01-06T13:17:03.127Z,3.87
2018-01-06T13:19:30.636Z,5.07
2018-01-06T13:21:58.959Z,5.20
2018-01-06T13:24:26.473Z,4.60
2018-01-06T13:26:54.025Z,5.97
2018-01-06T13:29:21.541Z,6.43
2018-01-06T13:31:49.116Z,5.43
2018-01-06T13:34:16.644Z,5.70
2018-01-06T13:36:44.195Z,6.20
2018-01-06T13:39:11.712Z,5.03
2018-01-06T13:41:39.988Z,5.50
2018-01-06T13:44:07.544Z,5.20
2018-01-06T13:46:35.051Z,5.20
2018-01-06T13:49:02.591Z,4.97
2018-01-06T13:51:30.106Z,4.60
2018-01-06T13:53:58.416Z,6.00
2018-01-06T13:56:25.929Z,6.77
2018-01-06T13:58:53.488Z,7.03
2018-01-06T14:01:21.004Z,5.27
2018-01-06T14:03:48.549Z,5.10
2018-01-06T14:06:16.064Z,5.30
2018-01-06T14:08:43.639Z,6.00
2018-01-06T14:11:11.147Z,5.90
2018-01-06T14:13:38.668Z,6.03
2018-01-06T14:16:06.233Z,6.63
2018-01-06T14:18:34.548Z,6.80
2018-01-06T14:21:02.094Z,7.07
2018-01-06T14:23:30.369Z,6.17
2018-01-06T14:25:57.916Z,6.40
2018-01-06T14:28:25.427Z,5.80
2018-01-06T14:30:53.802Z,5.90
2018-01-06T14:33:21.304Z,6.47
2018-01-06T14:35:48.859Z,6.10
2018-01-06T14:38:17.136Z,5.07
2018-01-06T14:40:44.724Z,6.17
2018-01-06T14:43:13.003Z,5.60
2018-01-06T14:45:40.512Z,5.93
2018-01-06T14:48:08.067Z,6.77
2018-01-06T14:50:35.599Z,6.30
2018-01-06T14:53:03.142Z,6.37
2018-01-06T14:55:30.655Z,5.97
2018-01-06T14:57:58.203Z,6.30
2018-01-06T15:00:25.720Z,6.30
2018-01-06T15:02:54.044Z,5.70
2018-01-06T15:05:21.897Z,6.53
2018-01-06T15:07:49.490Z,6.80
2018-01-06T15:10:17.007Z,7.67
2018-01-06T15:12:44.610Z,8.73
2018-01-06T15:15:12.895Z,8.87
2018-01-06T15:17:40.459Z,7.30
2018-01-06T15:20:07.968Z,7.83
2018-01-06T15:22:35.476Z,6.97
2018-01-06T15:25:03.059Z,7.40
2018-01-06T15:27:30.678Z,7.90
2018-01-06T15:29:58.224Z,8.37
2018-01-06T15:32:26.516Z,11.00
2018-01-06T15:34:54.819Z,8.47
2018-01-06T15:37:22.349Z,8.43
2018-01-06T15:39:49.903Z,7.50
2018-01-06T15:42:17.487Z,7.17
2018-01-06T15:44:45.050Z,8.47
2018-01-06T15:47:12.576Z,9.70
2018-01-06T15:49:40.847Z,9.17
2018-01-06T15:52:08.417Z,8.97
2018-01-06T15:54:35.939Z,9.80
2018-01-06T15:57:03.492Z,7.50
2018-01-06T15:59:31.016Z,9.10
2018-01-06T16:01:58.574Z,9.47
2018-01-06T16:04:26.096Z,9.97
2018-01-06T16:06:54.405Z,9.00
2018-01-06T16:09:21.919Z,8.50
2018-01-06T16:11:49.495Z,10.10
2018-01-06T16:14:17.019Z,9.60
2018-01-06T16:16:44.549Z,10.80
2018-01-06T16:19:12.096Z,9.80
2018-01-06T16:21:39.603Z,8.67
2018-01-06T16:24:07.153Z,8.97
2018-01-06T16:26:34.673Z,9.60
2018-01-06T16:29:02.232Z,10.80
2018-01-06T16:31:30.518Z,9.83
2018-01-06T16:33:58.094Z,11.27
2018-01-06T16:36:26.419Z,9.77
2018-01-06T16:38:53.942Z,11.70
2018-01-06T16:41:21.504Z,12.03
2018-01-06T16:43:49.019Z,12.10
2018-01-06T16:46:16.573Z,10.90
2018-01-06T16:48:44.092Z,10.33
2018-01-06T16:51:11.656Z,9.90
2018-01-06T16:53:39.171Z,10.73
2018-01-06T16:56:06.746Z,11.07
2018-01-06T16:58:34.261Z,10.87
2018-01-06T17:01:01.776Z,11.03
2018-01-06T17:03:29.322Z,10.60
2018-01-06T17:05:56.867Z,11.30
2018-01-06T17:08:24.424Z,11.57
2018-01-06T17:10:51.938Z,11.23
2018-01-06T17:13:19.498Z,11.87
2018-01-06T17:15:47.018Z,12.17
2018-01-06T17:18:14.628Z,11.50
2018-01-06T17:20:42.888Z,12.87
2018-01-06T17:23:11.212Z,13.17
2018-01-06T17:25:38.733Z,12.30
2018-01-06T17:28:06.299Z,12.10
2018-01-06T17:30:33.815Z,12.97
2018-01-06T17:33:02.097Z,15.73
2018-01-06T17:35:30.416Z,12.30
2018-01-06T17:37:57.936Z,12.20
2018-01-06T17:40:25.492Z,13.43
2018-01-06T17:42:53.036Z,11.80
2018-01-06T17:45:20.592Z,15.80
2018-01-06T17:47:48.112Z,13.10
2018-01-06T17:50:15.674Z,13.23
2018-01-06T17:52:43.201Z,13.77
2018-01-06T17:55:10.714Z,12.63
2018-01-06T17:57:38.263Z,14.03
2018-01-06T18:00:05.783Z,13.67
2018-01-06T18:02:33.340Z,15.77
2018-01-06T18:05:00.910Z,13.63
2018-01-06T18:07:28.471Z,14.03
2018-01-06T18:09:55.996Z,14.67
2018-01-06T18:12:24.351Z,15.90
2018-01-06T18:14:51.871Z,20.37
2018-01-06T18:17:19.414Z,16.23
2018-01-06T18:19:47.731Z,15.80
2018-01-06T18:22:15.248Z,14.30
2018-01-06T18:24:43.549Z,15.37
2018-01-06T18:27:11.085Z,16.17
2018-01-06T18:29:38.657Z,15.57
2018-01-06T18:32:06.175Z,13.50
2018-01-06T18:34:33.724Z,15.60
2018-01-06T18:37:01.360Z,20.80
2018-01-06T18:39:28.917Z,18.30
2018-01-06T18:41:56.431Z,16.03
2018-01-06T18:44:24.043Z,14.97
2018-01-06T18:46:51.566Z,17.07
2018-01-06T18:49:19.094Z,17.30
2018-01-06T18:51:47.413Z,17.70
2018-01-06T18:54:14.939Z,16.10
2018-01-06T18:56:42.529Z,20.00
2018-01-06T18:59:10.812Z,22.20
2018-01-06T19:01:39.151Z,18.10
2018-01-06T19:04:06.672Z,17.33
2018-01-06T19:06:34.240Z,16.00
2018-01-06T19:09:01.751Z,15.63
2018-01-06T19:11:29.312Z,14.50
2018-01-06T19:13:57.601Z,16.70
2018-01-06T19:16:25.981Z,16.33
2018-01-06T19:18:53.456Z,15.97
2018-01-06T19:21:21.784Z,15.13
2018-01-06T19:23:49.307Z,14.00
2018-01-06T19:26:16.933Z,12.23
2018-01-06T19:28:44.462Z,13.83
2018-01-06T19:31:12.748Z,12.43
2018-01-06T19:33:40.320Z,13.90
2018-01-06T19:36:08.616Z,14.50
2018-01-06T19:38:36.939Z,16.30
2018-01-06T19:41:04.471Z,14.83
2018-01-06T19:43:32.076Z,12.80
2018-01-06T19:45:59.613Z,13.30
2018-01-06T19:48:27.168Z,12.60
2018-01-06T19:50:54.711Z,13.13
2018-01-06T19:53:22.271Z,11.60
2018-01-06T19:55:49.781Z,12.63
2018-01-06T19:58:17.843Z,14.30
2018-01-06T20:06:41.420Z,12.70
2018-01-06T20:09:08.983Z,12.33
2018-01-06T20:11:36.505Z,13.50
2018-01-06T20:14:04.071Z,13.47
2018-01-06T20:16:31.592Z,13.20
2018-01-06T20:18:59.165Z,12.80
2018-01-06T20:21:26.685Z,13.93
2018-01-06T20:23:55.185Z,13.63
2018-01-06T20:26:22.878Z,14.13
2018-01-06T20:28:50.446Z,11.67
2018-01-06T20:31:18.778Z,12.60
2018-01-06T20:33:46.356Z,13.07
2018-01-06T20:36:13.916Z,11.33
2018-01-06T20:38:41.492Z,12.90
2018-01-06T20:41:09.139Z,14.00
2018-01-06T20:43:36.837Z,12.73
2018-01-06T20:46:04.720Z,14.53
2018-01-06T20:48:32.280Z,14.10
2018-01-06T20:50:59.816Z,14.50
2018-01-06T20:53:27.384Z,13.40
2018-01-06T20:55:54.949Z,13.97
2018-01-06T20:58:22.593Z,14.17
2018-01-06T21:00:50.205Z,15.47
2018-01-06T21:03:17.803Z,13.43
2018-01-06T21:05:45.680Z,15.30
2018-01-06T21:08:13.524Z,14.30
2018-01-06T21:10:41.060Z,13.53
2018-01-06T21:13:08.718Z,12.70
2018-01-06T21:15:36.398Z,11.97
2018-01-06T21:18:04.819Z,12.43
2018-01-06T21:20:33.316Z,10.33
2018-01-06T21:23:00.847Z,9.37
2018-01-06T21:25:28.400Z,10.87
2018-01-06T21:27:56.094Z,11.53
2018-01-06T21:30:23.651Z,13.67
2018-01-06T21:32:51.172Z,11.33
2018-01-06T21:35:18.733Z,12.77
2018-01-06T21:37:46.270Z,11.57
2018-01-06T21:40:13.852Z,10.10
2018-01-06T21:42:41.373Z,10.57
2018-01-06T21:45:08.896Z,10.67
2018-01-06T21:47:36.448Z,9.83
2018-01-06T21:50:03.973Z,9.70
2018-01-06T21:52:31.528Z,9.27
2018-01-06T21:54:59.090Z,10.27
2018-01-06T21:57:26.644Z,9.30
2018-01-06T21:59:54.195Z,9.93
2018-01-06T22:02:22.525Z,9.07
2018-01-06T22:04:50.101Z,9.00
2018-01-06T22:07:17.669Z,9.30
2018-01-06T22:09:45.184Z,9.43
2018-01-06T22:12:12.705Z,9.60
2018-01-06T22:14:40.300Z,8.17
2018-01-06T22:17:07.814Z,9.83
2018-01-06T22:19:35.613Z,10.00
2018-01-06T22:22:03.135Z,9.50
2018-01-06T22:24:30.692Z,9.50
2018-01-06T22:26:58.236Z,9.83
2018-01-06T22:29:25.792Z,9.80
2018-01-06T22:31:54.071Z,10.87
2018-01-06T22:34:22.405Z,11.80
2018-01-06T22:36:49.920Z,11.90
2018-01-06T22:39:17.489Z,11.07
2018-01-06T22:41:45.015Z,12.30
2018-01-06T22:44:12.584Z,12.20
2018-01-06T22:46:40.109Z,14.10
2018-01-06T22:49:07.622Z,13.90
2018-01-06T22:51:35.215Z,13.97
2018-01-06T22:54:02.732Z,13.60
2018-01-06T22:56:30.290Z,13.80
2018-01-06T22:58:57.834Z,12.93
2018-01-06T23:01:25.738Z,13.63
2018-01-06T23:03:53.257Z,14.40
2018-01-06T23:06:20.809Z,13.40
2018-01-06T23:08:48.329Z,11.97
2018-01-06T23:11:15.900Z,13.10
2018-01-06T23:13:43.460Z,14.03
2018-01-06T23:16:11.037Z,12.87
2018-01-06T23:18:39.325Z,13.23
2018-01-06T23:21:06.850Z,13.80
2018-01-06T23:23:34.400Z,12.43
2018-01-06T23:26:01.922Z,13.20
2018-01-06T23:28:29.476Z,13.33
2018-01-06T23:30:57.752Z,13.07
2018-01-06T23:33:25.309Z,13.57
2018-01-06T23:35:52.847Z,13.20
2018-01-06T23:38:20.401Z,13.20
2018-01-06T23:40:47.928Z,12.97
2018-01-06T23:43:15.492Z,14.10
2018-01-06T23:45:43.006Z,14.07
2018-01-06T23:48:11.329Z,13.60
2018-01-06T23:50:38.860Z,13.03
2018-01-06T23:53:07.184Z,12.43
2018-01-06T23:55:35.301Z,14.73
2018-01-06T23:58:02.869Z,14.00
